Terminal Aerodrome Forecast
Issued by NWS

Home | Current Version | Previous Version | Text Only | Print | Product List | Glossary On
Versions: 1 2 3 4 5 6 7 8 9 10 11 12 13
000
FTUS45 KTFX 211100
TAFLWT
TAF
KLWT 211129Z 2112/2212 22018G30KT P6SM BKN060
      TEMPO 2112/2116 6SM -RASN BKN030
     FM211900 28022G35KT P6SM BKN080
     FM220300 28018G28KT P6SM SCT080 BKN120=

USA.gov is the U.S. government's official web portal to all federal, state and local government web resources and services.